sensor_id;sensor_type;location;lat;lon;timestamp;P1;durP1;ratioP1;P2;durP2;ratioP2
14001;SDS011;7076;51.280;12.584;2023-11-19T00:01:25;1.57;;;1.30;;
14001;SDS011;7076;51.280;12.584;2023-11-19T00:06:28;1.33;;;1.23;;
14001;SDS011;7076;51.280;12.584;2023-11-19T00:11:30;1.43;;;1.30;;
14001;SDS011;7076;51.280;12.584;2023-11-19T00:16:34;2.50;;;1.30;;
14001;SDS011;7076;51.280;12.584;2023-11-19T00:21:37;2.77;;;1.40;;
14001;SDS011;7076;51.280;12.584;2023-11-19T00:26:39;2.43;;;1.13;;
14001;SDS011;7076;51.280;12.584;2023-11-19T00:31:44;1.50;;;1.40;;
14001;SDS011;7076;51.280;12.584;2023-11-19T00:36:47;1.63;;;1.40;;
14001;SDS011;7076;51.280;12.584;2023-11-19T00:41:50;2.17;;;1.50;;
14001;SDS011;7076;51.280;12.584;2023-11-19T00:46:54;1.30;;;1.20;;
14001;SDS011;7076;51.280;12.584;2023-11-19T00:51:57;1.10;;;1.00;;
14001;SDS011;7076;51.280;12.584;2023-11-19T00:57:00;0.90;;;0.90;;
14001;SDS011;7076;51.280;12.584;2023-11-19T01:02:04;1.00;;;0.90;;
14001;SDS011;7076;51.280;12.584;2023-11-19T01:07:07;1.80;;;1.10;;
14001;SDS011;7076;51.280;12.584;2023-11-19T01:12:14;0.83;;;0.83;;
14001;SDS011;7076;51.280;12.584;2023-11-19T01:17:18;0.70;;;0.67;;
14001;SDS011;7076;51.280;12.584;2023-11-19T01:22:21;0.60;;;0.60;;
14001;SDS011;7076;51.280;12.584;2023-11-19T01:27:24;0.50;;;0.50;;
14001;SDS011;7076;51.280;12.584;2023-11-19T01:32:28;0.50;;;0.50;;
14001;SDS011;7076;51.280;12.584;2023-11-19T01:37:31;2.10;;;0.47;;
14001;SDS011;7076;51.280;12.584;2023-11-19T01:42:36;1.20;;;0.52;;
14001;SDS011;7076;51.280;12.584;2023-11-19T01:47:40;0.50;;;0.40;;
14001;SDS011;7076;51.280;12.584;2023-11-19T01:52:43;1.37;;;0.50;;
14001;SDS011;7076;51.280;12.584;2023-11-19T01:57:45;0.57;;;0.43;;
14001;SDS011;7076;51.280;12.584;2023-11-19T02:02:49;0.40;;;0.40;;
14001;SDS011;7076;51.280;12.584;2023-11-19T02:07:53;1.30;;;0.40;;
14001;SDS011;7076;51.280;12.584;2023-11-19T02:12:56;0.40;;;0.40;;
14001;SDS011;7076;51.280;12.584;2023-11-19T02:18:24;0.50;;;0.50;;
14001;SDS011;7076;51.280;12.584;2023-11-19T02:23:29;1.58;;;0.55;;
14001;SDS011;7076;51.280;12.584;2023-11-19T02:28:34;2.05;;;0.60;;
14001;SDS011;7076;51.280;12.584;2023-11-19T02:33:38;0.60;;;0.60;;
14001;SDS011;7076;51.280;12.584;2023-11-19T02:38:41;0.60;;;0.60;;
14001;SDS011;7076;51.280;12.584;2023-11-19T02:43:45;0.70;;;0.70;;
14001;SDS011;7076;51.280;12.584;2023-11-19T02:48:49;1.60;;;0.70;;
14001;SDS011;7076;51.280;12.584;2023-11-19T02:53:53;0.50;;;0.50;;
14001;SDS011;7076;51.280;12.584;2023-11-19T02:58:57;0.80;;;0.80;;
14001;SDS011;7076;51.280;12.584;2023-11-19T03:03:59;0.57;;;0.57;;
14001;SDS011;7076;51.280;12.584;2023-11-19T03:09:04;2.47;;;0.65;;
14001;SDS011;7076;51.280;12.584;2023-11-19T03:14:13;0.80;;;0.80;;
14001;SDS011;7076;51.280;12.584;2023-11-19T03:19:15;0.70;;;0.65;;
14001;SDS011;7076;51.280;12.584;2023-11-19T03:24:27;1.90;;;0.77;;
14001;SDS011;7076;51.280;12.584;2023-11-19T03:29:31;0.80;;;0.68;;
14001;SDS011;7076;51.280;12.584;2023-11-19T03:34:33;1.40;;;0.73;;
14001;SDS011;7076;51.280;12.584;2023-11-19T03:39:36;0.70;;;0.70;;
14001;SDS011;7076;51.280;12.584;2023-11-19T03:44:40;0.80;;;0.80;;
14001;SDS011;7076;51.280;12.584;2023-11-19T03:49:42;0.80;;;0.80;;
14001;SDS011;7076;51.280;12.584;2023-11-19T03:54:49;1.00;;;0.90;;
14001;SDS011;7076;51.280;12.584;2023-11-19T03:59:53;0.80;;;0.80;;
14001;SDS011;7076;51.280;12.584;2023-11-19T04:04:56;1.55;;;0.95;;
14001;SDS011;7076;51.280;12.584;2023-11-19T04:09:59;0.87;;;0.87;;
14001;SDS011;7076;51.280;12.584;2023-11-19T04:15:04;1.30;;;0.90;;
14001;SDS011;7076;51.280;12.584;2023-11-19T04:20:07;0.98;;;0.90;;
14001;SDS011;7076;51.280;12.584;2023-11-19T04:25:14;0.70;;;0.70;;
14001;SDS011;7076;51.280;12.584;2023-11-19T04:30:19;0.90;;;0.90;;
14001;SDS011;7076;51.280;12.584;2023-11-19T04:35:22;2.00;;;0.85;;
14001;SDS011;7076;51.280;12.584;2023-11-19T04:40:24;0.90;;;0.70;;
14001;SDS011;7076;51.280;12.584;2023-11-19T04:45:28;0.77;;;0.77;;
14001;SDS011;7076;51.280;12.584;2023-11-19T04:50:31;0.60;;;0.60;;
14001;SDS011;7076;51.280;12.584;2023-11-19T04:55:34;0.70;;;0.70;;
14001;SDS011;7076;51.280;12.584;2023-11-19T05:00:38;0.65;;;0.63;;
14001;SDS011;7076;51.280;12.584;2023-11-19T05:05:40;0.57;;;0.55;;
14001;SDS011;7076;51.280;12.584;2023-11-19T05:10:43;0.95;;;0.82;;
14001;SDS011;7076;51.280;12.584;2023-11-19T05:15:47;0.70;;;0.70;;
14001;SDS011;7076;51.280;12.584;2023-11-19T05:20:50;1.02;;;0.63;;
14001;SDS011;7076;51.280;12.584;2023-11-19T05:25:52;0.60;;;0.60;;
14001;SDS011;7076;51.280;12.584;2023-11-19T05:30:56;0.50;;;0.50;;
14001;SDS011;7076;51.280;12.584;2023-11-19T05:35:59;0.50;;;0.50;;
14001;SDS011;7076;51.280;12.584;2023-11-19T05:41:01;0.65;;;0.65;;
14001;SDS011;7076;51.280;12.584;2023-11-19T05:46:06;0.60;;;0.60;;
14001;SDS011;7076;51.280;12.584;2023-11-19T05:51:20;0.57;;;0.57;;
14001;SDS011;7076;51.280;12.584;2023-11-19T05:56:25;0.50;;;0.50;;
14001;SDS011;7076;51.280;12.584;2023-11-19T06:01:35;0.40;;;0.40;;
14001;SDS011;7076;51.280;12.584;2023-11-19T06:06:38;1.45;;;0.40;;
14001;SDS011;7076;51.280;12.584;2023-11-19T06:11:41;0.47;;;0.47;;
14001;SDS011;7076;51.280;12.584;2023-11-19T06:16:47;0.30;;;0.30;;
14001;SDS011;7076;51.280;12.584;2023-11-19T06:21:50;0.40;;;0.40;;
14001;SDS011;7076;51.280;12.584;2023-11-19T06:26:52;0.30;;;0.30;;
14001;SDS011;7076;51.280;12.584;2023-11-19T06:31:56;0.40;;;0.32;;
14001;SDS011;7076;51.280;12.584;2023-11-19T06:36:59;0.35;;;0.35;;
14001;SDS011;7076;51.280;12.584;2023-11-19T06:42:02;0.30;;;0.30;;
14001;SDS011;7076;51.280;12.584;2023-11-19T06:47:06;0.40;;;0.40;;
14001;SDS011;7076;51.280;12.584;2023-11-19T06:52:09;0.45;;;0.45;;
14001;SDS011;7076;51.280;12.584;2023-11-19T06:57:12;0.88;;;0.47;;
14001;SDS011;7076;51.280;12.584;2023-11-19T07:02:16;0.45;;;0.45;;
14001;SDS011;7076;51.280;12.584;2023-11-19T07:07:18;0.30;;;0.30;;
14001;SDS011;7076;51.280;12.584;2023-11-19T07:12:21;0.32;;;0.32;;
14001;SDS011;7076;51.280;12.584;2023-11-19T07:17:25;0.98;;;0.30;;
14001;SDS011;7076;51.280;12.584;2023-11-19T07:22:28;0.30;;;0.30;;
14001;SDS011;7076;51.280;12.584;2023-11-19T07:27:31;0.38;;;0.38;;
14001;SDS011;7076;51.280;12.584;2023-11-19T07:32:35;1.63;;;0.50;;
14001;SDS011;7076;51.280;12.584;2023-11-19T07:37:40;1.10;;;0.50;;
14001;SDS011;7076;51.280;12.584;2023-11-19T07:42:43;0.50;;;0.50;;
14001;SDS011;7076;51.280;12.584;2023-11-19T07:47:48;0.85;;;0.40;;
14001;SDS011;7076;51.280;12.584;2023-11-19T07:52:52;0.35;;;0.35;;
14001;SDS011;7076;51.280;12.584;2023-11-19T07:57:55;0.47;;;0.43;;
14001;SDS011;7076;51.280;12.584;2023-11-19T08:02:59;1.48;;;0.40;;
14001;SDS011;7076;51.280;12.584;2023-11-19T08:08:02;0.43;;;0.43;;
14001;SDS011;7076;51.280;12.584;2023-11-19T08:13:05;0.43;;;0.40;;
14001;SDS011;7076;51.280;12.584;2023-11-19T08:18:10;0.90;;;0.80;;
14001;SDS011;7076;51.280;12.584;2023-11-19T08:23:12;0.55;;;0.40;;
14001;SDS011;7076;51.280;12.584;2023-11-19T08:28:15;1.50;;;0.40;;
14001;SDS011;7076;51.280;12.584;2023-11-19T08:33:19;0.40;;;0.40;;
14001;SDS011;7076;51.280;12.584;2023-11-19T08:38:23;2.60;;;0.40;;
14001;SDS011;7076;51.280;12.584;2023-11-19T08:43:29;0.35;;;0.30;;
14001;SDS011;7076;51.280;12.584;2023-11-19T08:48:34;0.50;;;0.50;;
14001;SDS011;7076;51.280;12.584;2023-11-19T08:53:37;0.45;;;0.40;;
14001;SDS011;7076;51.280;12.584;2023-11-19T08:58:40;0.50;;;0.50;;
14001;SDS011;7076;51.280;12.584;2023-11-19T09:03:44;0.47;;;0.47;;
14001;SDS011;7076;51.280;12.584;2023-11-19T09:08:46;1.05;;;0.50;;
14001;SDS011;7076;51.280;12.584;2023-11-19T09:13:49;0.88;;;0.50;;
14001;SDS011;7076;51.280;12.584;2023-11-19T09:18:53;1.80;;;0.50;;
14001;SDS011;7076;51.280;12.584;2023-11-19T09:23:56;0.88;;;0.80;;
14001;SDS011;7076;51.280;12.584;2023-11-19T09:28:59;0.55;;;0.38;;
14001;SDS011;7076;51.280;12.584;2023-11-19T09:34:03;0.93;;;0.47;;
14001;SDS011;7076;51.280;12.584;2023-11-19T09:39:06;1.17;;;0.60;;
14001;SDS011;7076;51.280;12.584;2023-11-19T09:44:09;1.75;;;0.77;;
14001;SDS011;7076;51.280;12.584;2023-11-19T09:49:14;1.17;;;0.70;;
14001;SDS011;7076;51.280;12.584;2023-11-19T09:54:36;3.80;;;1.50;;
14001;SDS011;7076;51.280;12.584;2023-11-19T09:59:39;0.70;;;0.70;;
14001;SDS011;7076;51.280;12.584;2023-11-19T10:04:44;0.50;;;0.50;;
14001;SDS011;7076;51.280;12.584;2023-11-19T10:09:48;0.90;;;0.70;;
14001;SDS011;7076;51.280;12.584;2023-11-19T10:14:51;1.30;;;0.80;;
14001;SDS011;7076;51.280;12.584;2023-11-19T10:19:55;2.92;;;2.20;;
14001;SDS011;7076;51.280;12.584;2023-11-19T10:24:58;0.70;;;0.68;;
14001;SDS011;7076;51.280;12.584;2023-11-19T10:30:00;1.40;;;1.05;;
14001;SDS011;7076;51.280;12.584;2023-11-19T10:35:08;2.83;;;1.88;;
14001;SDS011;7076;51.280;12.584;2023-11-19T10:40:14;5.13;;;1.52;;
14001;SDS011;7076;51.280;12.584;2023-11-19T10:45:21;2.15;;;1.30;;
14001;SDS011;7076;51.280;12.584;2023-11-19T10:50:25;3.55;;;1.08;;
14001;SDS011;7076;51.280;12.584;2023-11-19T10:55:29;2.95;;;0.82;;
14001;SDS011;7076;51.280;12.584;2023-11-19T11:00:34;3.42;;;1.20;;
14001;SDS011;7076;51.280;12.584;2023-11-19T11:05:39;3.13;;;0.80;;
14001;SDS011;7076;51.280;12.584;2023-11-19T11:10:44;1.17;;;0.82;;
14001;SDS011;7076;51.280;12.584;2023-11-19T11:15:50;4.00;;;0.95;;
14001;SDS011;7076;51.280;12.584;2023-11-19T11:20:55;4.38;;;0.98;;
14001;SDS011;7076;51.280;12.584;2023-11-19T11:26:03;4.18;;;1.00;;
14001;SDS011;7076;51.280;12.584;2023-11-19T11:31:14;5.75;;;1.00;;
14001;SDS011;7076;51.280;12.584;2023-11-19T11:36:20;4.95;;;1.05;;
14001;SDS011;7076;51.280;12.584;2023-11-19T11:41:24;5.85;;;1.30;;
14001;SDS011;7076;51.280;12.584;2023-11-19T11:52:05;4.45;;;1.63;;
14001;SDS011;7076;51.280;12.584;2023-11-19T11:57:08;7.63;;;2.05;;
14001;SDS011;7076;51.280;12.584;2023-11-19T12:02:15;6.15;;;1.58;;
14001;SDS011;7076;51.280;12.584;2023-11-19T12:07:20;8.80;;;1.70;;
14001;SDS011;7076;51.280;12.584;2023-11-19T12:12:27;6.03;;;1.70;;
14001;SDS011;7076;51.280;12.584;2023-11-19T12:22:56;5.20;;;1.10;;
14001;SDS011;7076;51.280;12.584;2023-11-19T12:27:59;5.85;;;1.90;;
14001;SDS011;7076;51.280;12.584;2023-11-19T12:33:07;5.60;;;1.35;;
14001;SDS011;7076;51.280;12.584;2023-11-19T12:38:19;6.70;;;1.73;;
14001;SDS011;7076;51.280;12.584;2023-11-19T12:43:22;7.10;;;1.65;;
14001;SDS011;7076;51.280;12.584;2023-11-19T12:48:25;6.45;;;1.60;;
14001;SDS011;7076;51.280;12.584;2023-11-19T12:53:29;8.32;;;1.67;;
14001;SDS011;7076;51.280;12.584;2023-11-19T12:58:49;7.97;;;1.65;;
14001;SDS011;7076;51.280;12.584;2023-11-19T13:03:51;8.30;;;1.92;;
14001;SDS011;7076;51.280;12.584;2023-11-19T13:08:55;6.18;;;1.65;;
14001;SDS011;7076;51.280;12.584;2023-11-19T13:13:58;6.78;;;1.20;;
14001;SDS011;7076;51.280;12.584;2023-11-19T13:19:02;10.90;;;1.77;;
14001;SDS011;7076;51.280;12.584;2023-11-19T13:24:06;9.48;;;1.65;;
14001;SDS011;7076;51.280;12.584;2023-11-19T13:29:08;6.82;;;1.60;;
14001;SDS011;7076;51.280;12.584;2023-11-19T13:34:12;10.98;;;1.88;;
14001;SDS011;7076;51.280;12.584;2023-11-19T13:39:16;7.65;;;1.50;;
14001;SDS011;7076;51.280;12.584;2023-11-19T13:44:24;5.90;;;1.80;;
14001;SDS011;7076;51.280;12.584;2023-11-19T13:49:26;4.93;;;1.35;;
14001;SDS011;7076;51.280;12.584;2023-11-19T13:54:31;9.65;;;1.90;;
14001;SDS011;7076;51.280;12.584;2023-11-19T13:59:34;5.90;;;1.58;;
14001;SDS011;7076;51.280;12.584;2023-11-19T14:04:41;5.82;;;1.67;;
14001;SDS011;7076;51.280;12.584;2023-11-19T14:09:45;8.50;;;1.63;;
14001;SDS011;7076;51.280;12.584;2023-11-19T14:14:48;6.63;;;1.88;;
14001;SDS011;7076;51.280;12.584;2023-11-19T14:19:51;7.32;;;1.40;;
14001;SDS011;7076;51.280;12.584;2023-11-19T14:24:55;9.45;;;1.55;;
14001;SDS011;7076;51.280;12.584;2023-11-19T14:29:58;5.53;;;1.15;;
14001;SDS011;7076;51.280;12.584;2023-11-19T14:35:00;6.55;;;1.23;;
14001;SDS011;7076;51.280;12.584;2023-11-19T14:40:07;5.40;;;1.60;;
14001;SDS011;7076;51.280;12.584;2023-11-19T14:45:11;7.75;;;1.80;;
14001;SDS011;7076;51.280;12.584;2023-11-19T14:50:14;3.85;;;1.23;;
14001;SDS011;7076;51.280;12.584;2023-11-19T14:55:18;8.60;;;1.67;;
14001;SDS011;7076;51.280;12.584;2023-11-19T15:00:21;6.00;;;1.52;;
14001;SDS011;7076;51.280;12.584;2023-11-19T15:05:24;4.95;;;1.48;;
14001;SDS011;7076;51.280;12.584;2023-11-19T15:10:28;5.45;;;1.80;;
14001;SDS011;7076;51.280;12.584;2023-11-19T15:15:30;6.40;;;1.83;;
14001;SDS011;7076;51.280;12.584;2023-11-19T15:20:37;5.03;;;1.33;;
14001;SDS011;7076;51.280;12.584;2023-11-19T15:25:41;5.72;;;1.27;;
14001;SDS011;7076;51.280;12.584;2023-11-19T15:30:43;9.63;;;1.75;;
14001;SDS011;7076;51.280;12.584;2023-11-19T15:35:46;6.35;;;1.90;;
14001;SDS011;7076;51.280;12.584;2023-11-19T15:40:51;6.45;;;1.70;;
14001;SDS011;7076;51.280;12.584;2023-11-19T15:45:53;6.07;;;1.70;;
14001;SDS011;7076;51.280;12.584;2023-11-19T15:50:56;8.43;;;1.75;;
14001;SDS011;7076;51.280;12.584;2023-11-19T15:56:00;5.38;;;2.08;;
14001;SDS011;7076;51.280;12.584;2023-11-19T16:01:04;6.28;;;1.52;;
14001;SDS011;7076;51.280;12.584;2023-11-19T16:06:08;5.85;;;1.40;;
14001;SDS011;7076;51.280;12.584;2023-11-19T16:11:13;5.43;;;1.42;;
14001;SDS011;7076;51.280;12.584;2023-11-19T16:16:16;8.50;;;1.52;;
14001;SDS011;7076;51.280;12.584;2023-11-19T16:21:19;5.75;;;1.70;;
14001;SDS011;7076;51.280;12.584;2023-11-19T16:26:23;5.72;;;1.23;;
14001;SDS011;7076;51.280;12.584;2023-11-19T16:31:27;9.15;;;1.75;;
14001;SDS011;7076;51.280;12.584;2023-11-19T16:36:29;9.25;;;2.50;;
14001;SDS011;7076;51.280;12.584;2023-11-19T16:41:33;6.82;;;1.75;;
14001;SDS011;7076;51.280;12.584;2023-11-19T16:46:43;6.88;;;1.58;;
14001;SDS011;7076;51.280;12.584;2023-11-19T16:51:46;4.57;;;1.52;;
14001;SDS011;7076;51.280;12.584;2023-11-19T16:56:50;5.30;;;2.00;;
14001;SDS011;7076;51.280;12.584;2023-11-19T17:01:53;8.27;;;1.85;;
14001;SDS011;7076;51.280;12.584;2023-11-19T17:06:56;5.75;;;1.77;;
14001;SDS011;7076;51.280;12.584;2023-11-19T17:12:00;7.65;;;1.80;;
14001;SDS011;7076;51.280;12.584;2023-11-19T17:17:03;10.85;;;2.13;;
14001;SDS011;7076;51.280;12.584;2023-11-19T17:22:05;7.65;;;1.75;;
14001;SDS011;7076;51.280;12.584;2023-11-19T17:27:09;8.10;;;1.23;;
14001;SDS011;7076;51.280;12.584;2023-11-19T17:32:12;5.88;;;1.50;;
14001;SDS011;7076;51.280;12.584;2023-11-19T17:37:15;9.73;;;1.42;;
14001;SDS011;7076;51.280;12.584;2023-11-19T17:42:20;4.70;;;1.17;;
14001;SDS011;7076;51.280;12.584;2023-11-19T17:47:23;7.95;;;1.98;;
14001;SDS011;7076;51.280;12.584;2023-11-19T17:52:26;5.63;;;1.30;;
14001;SDS011;7076;51.280;12.584;2023-11-19T17:57:30;7.78;;;1.70;;
14001;SDS011;7076;51.280;12.584;2023-11-19T18:02:33;6.45;;;1.65;;
14001;SDS011;7076;51.280;12.584;2023-11-19T18:07:39;6.82;;;1.40;;
14001;SDS011;7076;51.280;12.584;2023-11-19T18:12:44;4.70;;;1.48;;
14001;SDS011;7076;51.280;12.584;2023-11-19T18:17:47;6.40;;;1.95;;
14001;SDS011;7076;51.280;12.584;2023-11-19T18:22:49;6.18;;;1.80;;
14001;SDS011;7076;51.280;12.584;2023-11-19T18:27:57;10.27;;;1.67;;
14001;SDS011;7076;51.280;12.584;2023-11-19T18:32:59;7.80;;;1.70;;
14001;SDS011;7076;51.280;12.584;2023-11-19T18:38:02;5.10;;;1.70;;
14001;SDS011;7076;51.280;12.584;2023-11-19T18:43:06;7.88;;;1.65;;
14001;SDS011;7076;51.280;12.584;2023-11-19T18:48:09;6.03;;;1.27;;
14001;SDS011;7076;51.280;12.584;2023-11-19T18:53:11;6.57;;;1.52;;
14001;SDS011;7076;51.280;12.584;2023-11-19T18:58:15;9.85;;;1.70;;
14001;SDS011;7076;51.280;12.584;2023-11-19T19:03:18;6.07;;;1.40;;
14001;SDS011;7076;51.280;12.584;2023-11-19T19:08:23;6.43;;;1.42;;
14001;SDS011;7076;51.280;12.584;2023-11-19T19:13:28;5.40;;;1.50;;
14001;SDS011;7076;51.280;12.584;2023-11-19T19:18:31;5.78;;;1.10;;
14001;SDS011;7076;51.280;12.584;2023-11-19T19:23:35;3.58;;;1.13;;
14001;SDS011;7076;51.280;12.584;2023-11-19T19:28:39;4.18;;;1.17;;
14001;SDS011;7076;51.280;12.584;2023-11-19T19:33:42;7.13;;;1.58;;
14001;SDS011;7076;51.280;12.584;2023-11-19T19:38:44;7.28;;;1.30;;
14001;SDS011;7076;51.280;12.584;2023-11-19T19:43:49;7.00;;;1.30;;
14001;SDS011;7076;51.280;12.584;2023-11-19T19:48:51;3.83;;;1.35;;
14001;SDS011;7076;51.280;12.584;2023-11-19T19:53:55;5.95;;;1.30;;
14001;SDS011;7076;51.280;12.584;2023-11-19T19:58:59;6.38;;;1.60;;
14001;SDS011;7076;51.280;12.584;2023-11-19T20:04:02;3.63;;;1.23;;
14001;SDS011;7076;51.280;12.584;2023-11-19T20:09:04;6.07;;;1.00;;
14001;SDS011;7076;51.280;12.584;2023-11-19T20:14:09;4.78;;;1.27;;
14001;SDS011;7076;51.280;12.584;2023-11-19T20:19:13;4.35;;;1.40;;
14001;SDS011;7076;51.280;12.584;2023-11-19T20:24:15;5.55;;;1.40;;
14001;SDS011;7076;51.280;12.584;2023-11-19T20:29:20;8.23;;;1.98;;
14001;SDS011;7076;51.280;12.584;2023-11-19T20:34:22;5.28;;;1.60;;
14001;SDS011;7076;51.280;12.584;2023-11-19T20:39:26;3.50;;;1.17;;
14001;SDS011;7076;51.280;12.584;2023-11-19T20:44:31;4.10;;;1.40;;
14001;SDS011;7076;51.280;12.584;2023-11-19T20:49:34;4.38;;;1.38;;
14001;SDS011;7076;51.280;12.584;2023-11-19T20:54:36;5.65;;;1.35;;
14001;SDS011;7076;51.280;12.584;2023-11-19T20:59:42;5.60;;;1.13;;
14001;SDS011;7076;51.280;12.584;2023-11-19T21:04:44;5.40;;;1.30;;
14001;SDS011;7076;51.280;12.584;2023-11-19T21:09:47;5.78;;;1.30;;
14001;SDS011;7076;51.280;12.584;2023-11-19T21:14:51;6.32;;;1.35;;
14001;SDS011;7076;51.280;12.584;2023-11-19T21:19:54;8.20;;;1.00;;
14001;SDS011;7076;51.280;12.584;2023-11-19T21:24:57;3.35;;;0.95;;
14001;SDS011;7076;51.280;12.584;2023-11-19T21:30:02;4.40;;;1.10;;
14001;SDS011;7076;51.280;12.584;2023-11-19T21:35:06;6.13;;;1.30;;
14001;SDS011;7076;51.280;12.584;2023-11-19T21:40:10;7.03;;;1.15;;
14001;SDS011;7076;51.280;12.584;2023-11-19T21:45:14;4.25;;;1.17;;
14001;SDS011;7076;51.280;12.584;2023-11-19T21:50:17;4.75;;;1.08;;
14001;SDS011;7076;51.280;12.584;2023-11-19T21:55:20;5.43;;;1.17;;
14001;SDS011;7076;51.280;12.584;2023-11-19T22:00:24;6.85;;;1.35;;
14001;SDS011;7076;51.280;12.584;2023-11-19T22:05:27;5.20;;;1.38;;
14001;SDS011;7076;51.280;12.584;2023-11-19T22:10:29;5.22;;;1.50;;
14001;SDS011;7076;51.280;12.584;2023-11-19T22:15:33;4.30;;;1.20;;
14001;SDS011;7076;51.280;12.584;2023-11-19T22:20:36;6.88;;;1.60;;
14001;SDS011;7076;51.280;12.584;2023-11-19T22:25:39;3.20;;;1.20;;
14001;SDS011;7076;51.280;12.584;2023-11-19T22:30:43;4.07;;;1.48;;
14001;SDS011;7076;51.280;12.584;2023-11-19T22:35:46;3.63;;;1.00;;
14001;SDS011;7076;51.280;12.584;2023-11-19T22:40:48;5.10;;;1.15;;
14001;SDS011;7076;51.280;12.584;2023-11-19T22:45:52;5.72;;;1.38;;
14001;SDS011;7076;51.280;12.584;2023-11-19T22:50:55;3.65;;;1.02;;
14001;SDS011;7076;51.280;12.584;2023-11-19T22:55:58;7.68;;;1.60;;
14001;SDS011;7076;51.280;12.584;2023-11-19T23:01:02;5.75;;;1.38;;
14001;SDS011;7076;51.280;12.584;2023-11-19T23:06:05;6.35;;;1.20;;
14001;SDS011;7076;51.280;12.584;2023-11-19T23:11:08;10.30;;;1.45;;
14001;SDS011;7076;51.280;12.584;2023-11-19T23:16:12;4.90;;;1.15;;
14001;SDS011;7076;51.280;12.584;2023-11-19T23:21:18;4.85;;;1.33;;
14001;SDS011;7076;51.280;12.584;2023-11-19T23:26:20;5.97;;;1.48;;
14001;SDS011;7076;51.280;12.584;2023-11-19T23:31:24;6.55;;;1.45;;
14001;SDS011;7076;51.280;12.584;2023-11-19T23:36:27;3.83;;;1.17;;
14001;SDS011;7076;51.280;12.584;2023-11-19T23:41:30;7.72;;;1.13;;
14001;SDS011;7076;51.280;12.584;2023-11-19T23:46:34;8.40;;;1.30;;
14001;SDS011;7076;51.280;12.584;2023-11-19T23:51:37;4.82;;;1.45;;
14001;SDS011;7076;51.280;12.584;2023-11-19T23:56:40;4.15;;;1.30;;
